createdAt,value
2023-11-29T00:01:00.716Z,1.79
2023-11-29T00:03:28.274Z,1.82
2023-11-29T00:05:55.978Z,1.84
2023-11-29T00:08:23.637Z,1.75
2023-11-29T00:10:51.211Z,1.79
2023-11-29T00:13:21.372Z,1.58
2023-11-29T00:15:49.518Z,1.65
2023-11-29T00:18:19.314Z,1.54
2023-11-29T00:20:46.941Z,1.54
2023-11-29T00:23:14.582Z,1.49
2023-11-29T00:25:42.203Z,1.62
2023-11-29T00:28:10.094Z,1.62
2023-11-29T00:30:37.700Z,1.65
2023-11-29T00:33:05.390Z,1.67
2023-11-29T00:35:34.405Z,1.68
2023-11-29T00:38:02.117Z,1.71
2023-11-29T00:40:29.642Z,1.71
2023-11-29T00:43:04.017Z,1.70
2023-11-29T00:45:35.943Z,1.53
2023-11-29T00:48:03.667Z,1.57
2023-11-29T00:50:31.321Z,1.62
2023-11-29T00:53:00.221Z,1.61
2023-11-29T00:55:34.929Z,1.67
2023-11-29T00:58:03.809Z,1.70
2023-11-29T01:00:31.460Z,1.71
2023-11-29T01:02:59.902Z,1.68
2023-11-29T01:05:27.821Z,1.70
2023-11-29T01:07:57.177Z,1.63
2023-11-29T01:10:26.242Z,1.58
2023-11-29T01:12:54.064Z,1.54
2023-11-29T01:15:21.843Z,1.46
2023-11-29T01:17:49.691Z,1.35
2023-11-29T01:20:17.516Z,1.29
2023-11-29T01:22:45.725Z,1.29
2023-11-29T01:25:13.566Z,1.25
2023-11-29T01:27:43.046Z,1.21
2023-11-29T01:30:11.064Z,1.10
2023-11-29T01:32:38.810Z,1.08
2023-11-29T01:35:07.447Z,1.13
2023-11-29T01:37:36.025Z,1.17
2023-11-29T01:40:04.091Z,1.18
2023-11-29T01:42:31.953Z,1.18
2023-11-29T01:45:00.878Z,1.16
2023-11-29T01:47:30.495Z,1.13
2023-11-29T01:49:58.422Z,1.22
2023-11-29T01:52:26.191Z,1.27
2023-11-29T01:54:53.776Z,1.20
2023-11-29T01:57:21.430Z,1.27
2023-11-29T01:59:49.018Z,1.21
2023-11-29T02:02:18.342Z,1.15
2023-11-29T02:04:46.561Z,1.19
2023-11-29T02:07:14.837Z,1.27
2023-11-29T02:09:42.602Z,1.25
2023-11-29T02:12:10.437Z,1.26
2023-11-29T02:14:41.552Z,1.28
2023-11-29T02:17:09.572Z,1.33
2023-11-29T02:19:39.259Z,1.28
2023-11-29T02:22:07.235Z,1.25
2023-11-29T02:24:41.592Z,1.23
2023-11-29T02:27:10.806Z,1.16
2023-11-29T02:29:40.139Z,1.25
2023-11-29T02:32:08.638Z,1.24
2023-11-29T02:34:37.238Z,1.26
2023-11-29T02:37:05.019Z,1.09
2023-11-29T02:39:32.626Z,1.14
2023-11-29T02:42:00.222Z,1.21
2023-11-29T02:44:30.262Z,1.24
2023-11-29T02:46:57.958Z,1.12
2023-11-29T02:49:25.691Z,1.18
2023-11-29T02:51:53.829Z,1.21
2023-11-29T02:54:21.384Z,1.27
2023-11-29T02:56:49.241Z,1.26
2023-11-29T02:59:16.910Z,1.27
2023-11-29T03:01:45.897Z,1.33
2023-11-29T03:04:13.511Z,1.31
2023-11-29T03:06:41.162Z,1.33
2023-11-29T03:09:09.068Z,1.29
2023-11-29T03:11:36.678Z,1.26
2023-11-29T03:14:04.380Z,1.26
2023-11-29T03:16:32.038Z,1.27
2023-11-29T03:19:01.038Z,1.26
2023-11-29T03:21:29.890Z,1.24
2023-11-29T03:23:57.489Z,1.18
2023-11-29T03:26:25.095Z,1.16
2023-11-29T03:28:52.697Z,1.13
2023-11-29T03:31:20.374Z,1.04
2023-11-29T03:33:48.024Z,0.96
2023-11-29T03:36:16.951Z,1.02
2023-11-29T03:38:44.566Z,0.97
2023-11-29T03:41:12.243Z,0.91
2023-11-29T03:43:39.821Z,0.80
2023-11-29T03:46:08.039Z,0.78
2023-11-29T03:48:35.710Z,0.75
2023-11-29T03:51:03.288Z,0.68
2023-11-29T03:53:32.299Z,0.67
2023-11-29T03:55:59.930Z,0.69
2023-11-29T03:58:27.498Z,0.67
2023-11-29T04:00:55.126Z,0.69
2023-11-29T04:03:22.734Z,0.70
2023-11-29T04:05:50.359Z,1.33
2023-11-29T04:08:18.866Z,4.84
2023-11-29T04:10:48.031Z,6.38
2023-11-29T04:13:15.640Z,6.27
2023-11-29T04:15:43.247Z,4.28
2023-11-29T04:18:10.832Z,3.04
2023-11-29T04:20:38.496Z,2.38
2023-11-29T04:23:06.079Z,2.02
2023-11-29T04:25:33.670Z,1.70
2023-11-29T04:28:04.167Z,1.57
2023-11-29T04:30:31.933Z,1.37
2023-11-29T04:32:59.737Z,1.28
2023-11-29T04:35:27.398Z,2.91
2023-11-29T04:37:54.958Z,3.81
2023-11-29T04:40:22.488Z,5.18
2023-11-29T04:42:50.060Z,6.28
2023-11-29T04:45:19.050Z,7.03
2023-11-29T04:47:46.801Z,7.41
2023-11-29T04:50:14.608Z,8.13
2023-11-29T04:52:42.188Z,8.49
2023-11-29T04:55:10.810Z,6.21
2023-11-29T04:57:38.391Z,4.36
2023-11-29T05:00:07.697Z,3.51
2023-11-29T05:02:36.688Z,3.00
2023-11-29T05:05:08.219Z,2.61
2023-11-29T05:07:35.774Z,2.34
2023-11-29T05:10:03.397Z,2.18
2023-11-29T05:12:31.043Z,3.90
2023-11-29T05:14:58.641Z,5.46
2023-11-29T05:17:26.309Z,4.13
2023-11-29T05:19:55.305Z,4.94
2023-11-29T05:22:22.853Z,7.00
2023-11-29T05:24:50.452Z,6.17
2023-11-29T05:27:18.112Z,4.70
2023-11-29T05:29:45.679Z,3.79
2023-11-29T05:32:13.655Z,3.15
2023-11-29T05:34:41.628Z,2.72
2023-11-29T05:37:11.310Z,2.52
2023-11-29T05:39:37.920Z,2.38
2023-11-29T05:42:07.428Z,2.27
2023-11-29T05:44:35.425Z,2.20
2023-11-29T05:47:03.525Z,2.06
2023-11-29T05:49:31.238Z,1.92
2023-11-29T05:51:59.000Z,1.90
2023-11-29T05:54:28.165Z,1.91
2023-11-29T05:56:56.111Z,1.89
2023-11-29T05:59:23.830Z,1.86
2023-11-29T06:01:52.684Z,1.81
2023-11-29T06:04:20.333Z,1.74
2023-11-29T06:06:47.934Z,1.76
2023-11-29T06:09:15.968Z,1.70
2023-11-29T06:11:44.914Z,1.71
2023-11-29T06:14:12.731Z,1.66
2023-11-29T06:16:40.296Z,1.62
2023-11-29T06:19:08.039Z,1.57
2023-11-29T06:21:35.666Z,1.59
2023-11-29T06:24:03.286Z,1.58
2023-11-29T06:26:33.546Z,1.63
2023-11-29T06:29:02.546Z,1.62
2023-11-29T06:31:30.444Z,1.68
2023-11-29T06:33:58.051Z,1.70
2023-11-29T06:36:27.349Z,1.68
2023-11-29T06:38:56.521Z,1.66
2023-11-29T06:41:24.122Z,1.68
2023-11-29T06:43:53.291Z,1.66
2023-11-29T06:46:23.115Z,1.61
2023-11-29T06:48:51.544Z,1.60
2023-11-29T06:51:19.196Z,1.63
2023-11-29T06:53:47.103Z,1.66
2023-11-29T06:56:14.709Z,1.62
2023-11-29T06:58:42.320Z,1.59
2023-11-29T07:01:10.313Z,1.68
2023-11-29T07:03:39.229Z,1.74
2023-11-29T07:06:07.569Z,1.68
2023-11-29T07:08:35.243Z,1.68
2023-11-29T07:11:05.701Z,1.66
2023-11-29T07:13:33.353Z,1.65
2023-11-29T07:16:01.014Z,1.65
2023-11-29T07:18:28.711Z,1.69
2023-11-29T07:20:58.655Z,1.68
2023-11-29T07:23:26.333Z,1.70
2023-11-29T07:25:55.587Z,1.76
2023-11-29T07:28:23.201Z,1.73
2023-11-29T07:30:51.886Z,1.77
2023-11-29T07:33:19.625Z,1.82
2023-11-29T07:35:47.308Z,1.78
2023-11-29T07:38:16.346Z,1.79
2023-11-29T07:40:44.103Z,1.77
2023-11-29T07:43:13.178Z,1.79
2023-11-29T07:45:43.036Z,1.83
2023-11-29T07:48:10.863Z,1.87
2023-11-29T07:50:38.517Z,1.89
2023-11-29T07:53:06.188Z,1.93
2023-11-29T07:55:36.238Z,1.96
2023-11-29T07:58:04.870Z,1.96
2023-11-29T08:00:32.723Z,1.88
2023-11-29T08:03:00.396Z,1.86
2023-11-29T08:05:29.242Z,1.81
2023-11-29T08:07:56.996Z,1.79
2023-11-29T08:10:24.930Z,1.78
2023-11-29T08:12:53.852Z,1.91
2023-11-29T08:15:21.439Z,1.93
2023-11-29T08:17:49.174Z,1.95
2023-11-29T08:20:17.078Z,2.01
2023-11-29T08:22:45.908Z,2.03
2023-11-29T08:25:14.032Z,2.05
2023-11-29T08:27:41.619Z,2.13
2023-11-29T08:30:12.397Z,2.06
2023-11-29T08:32:41.479Z,2.18
2023-11-29T08:35:11.088Z,2.26
2023-11-29T08:37:38.670Z,2.35
2023-11-29T08:40:08.043Z,2.48
2023-11-29T08:42:35.879Z,2.57
2023-11-29T08:45:03.990Z,2.64
2023-11-29T08:47:33.259Z,2.81
2023-11-29T08:50:00.913Z,2.92
2023-11-29T08:52:28.495Z,3.04
2023-11-29T08:54:56.051Z,3.10
2023-11-29T08:57:24.718Z,3.18
2023-11-29T08:59:52.604Z,3.01
2023-11-29T09:02:21.148Z,3.20
2023-11-29T09:04:50.314Z,3.14
2023-11-29T09:07:18.945Z,3.24
2023-11-29T09:09:48.572Z,3.39
2023-11-29T09:12:17.174Z,3.38
2023-11-29T09:14:45.436Z,3.27
2023-11-29T09:17:17.276Z,3.23
2023-11-29T09:19:45.584Z,2.95
2023-11-29T09:22:14.586Z,2.83
2023-11-29T09:24:42.169Z,2.71
2023-11-29T09:27:09.730Z,2.79
2023-11-29T09:29:37.468Z,2.90
2023-11-29T09:32:05.894Z,3.03
2023-11-29T09:34:33.533Z,3.24
2023-11-29T09:37:01.714Z,3.30
2023-11-29T09:39:31.571Z,3.31
2023-11-29T09:41:59.370Z,3.44
2023-11-29T09:44:27.486Z,3.48
2023-11-29T09:46:55.746Z,3.28
2023-11-29T09:49:24.452Z,3.57
2023-11-29T09:51:52.426Z,3.72
2023-11-29T09:54:20.163Z,3.73
2023-11-29T09:56:49.263Z,3.88
2023-11-29T09:59:17.409Z,3.84
2023-11-29T10:01:46.941Z,3.63
2023-11-29T10:04:15.641Z,3.64
2023-11-29T10:06:43.421Z,3.68
2023-11-29T10:09:13.422Z,3.70
2023-11-29T10:11:42.052Z,3.62
2023-11-29T10:14:12.145Z,3.61
2023-11-29T10:16:39.887Z,3.70
2023-11-29T10:19:10.878Z,3.66
2023-11-29T10:21:41.758Z,3.73
2023-11-29T10:24:09.453Z,3.56
2023-11-29T10:26:37.218Z,3.74
2023-11-29T10:29:04.869Z,3.88
2023-11-29T10:31:36.064Z,3.65
2023-11-29T10:34:05.094Z,3.72
2023-11-29T10:36:34.653Z,3.74
2023-11-29T10:39:07.383Z,3.82
2023-11-29T10:41:40.347Z,3.96
2023-11-29T10:44:09.864Z,4.05
2023-11-29T10:46:41.960Z,4.12
2023-11-29T10:49:17.967Z,4.13
2023-11-29T10:51:46.693Z,3.98
2023-11-29T10:54:38.673Z,3.97
2023-11-29T10:57:05.167Z,4.09
2023-11-29T10:59:35.880Z,4.27
2023-11-29T11:02:05.195Z,4.31
2023-11-29T11:04:33.638Z,4.18
2023-11-29T11:07:03.966Z,4.38
2023-11-29T11:09:40.633Z,4.23
2023-11-29T11:12:09.307Z,4.24
2023-11-29T11:14:58.942Z,4.54
2023-11-29T11:17:28.512Z,4.42
2023-11-29T11:19:56.295Z,4.38
2023-11-29T11:22:33.467Z,4.38
2023-11-29T11:25:06.104Z,4.43
2023-11-29T11:27:38.200Z,4.58
2023-11-29T11:30:27.609Z,4.53
2023-11-29T11:32:58.477Z,4.53
2023-11-29T11:35:36.988Z,4.62
2023-11-29T11:38:09.909Z,4.33
2023-11-29T11:40:40.189Z,4.43
2023-11-29T11:43:08.901Z,4.47
2023-11-29T11:45:38.058Z,4.16
2023-11-29T11:48:09.351Z,4.51
2023-11-29T11:50:37.551Z,4.72
2023-11-29T11:53:07.122Z,4.55
2023-11-29T11:55:36.650Z,4.62
2023-11-29T11:58:05.531Z,4.66
2023-11-29T12:00:33.383Z,4.70
2023-11-29T12:03:02.303Z,4.92
2023-11-29T12:05:31.747Z,5.13
2023-11-29T12:08:00.662Z,5.13
2023-11-29T12:10:28.331Z,5.07
2023-11-29T12:12:56.730Z,5.10
2023-11-29T12:15:24.810Z,4.84
2023-11-29T12:17:52.670Z,4.76
2023-11-29T12:20:20.537Z,4.74
2023-11-29T12:22:49.572Z,4.99
2023-11-29T12:25:20.834Z,5.28
2023-11-29T12:27:51.302Z,5.22
2023-11-29T12:30:20.352Z,5.25
2023-11-29T12:32:48.198Z,5.52
2023-11-29T12:35:17.357Z,5.56
2023-11-29T12:37:47.141Z,5.78
2023-11-29T12:40:20.289Z,6.20
2023-11-29T12:42:49.941Z,6.27
2023-11-29T12:45:18.068Z,6.59
2023-11-29T12:47:45.792Z,6.65
2023-11-29T12:50:13.947Z,6.71
2023-11-29T12:52:42.092Z,6.59
2023-11-29T12:55:10.343Z,6.46
2023-11-29T12:57:39.942Z,6.61
2023-11-29T13:00:10.080Z,6.48
2023-11-29T13:02:37.863Z,6.43
2023-11-29T13:05:06.235Z,6.44
2023-11-29T13:07:34.125Z,6.38
2023-11-29T13:10:01.716Z,6.32
2023-11-29T13:12:29.594Z,6.61
2023-11-29T13:14:59.204Z,6.42
2023-11-29T13:17:26.867Z,6.63
2023-11-29T13:19:54.458Z,7.16
2023-11-29T13:22:22.100Z,7.23
2023-11-29T13:24:49.724Z,7.31
2023-11-29T13:27:17.541Z,7.44
2023-11-29T13:29:45.208Z,7.57
2023-11-29T13:32:14.575Z,7.57
2023-11-29T13:34:42.812Z,7.76
2023-11-29T13:37:10.636Z,7.24
2023-11-29T13:39:38.248Z,7.54
2023-11-29T13:42:06.624Z,7.91
2023-11-29T13:44:34.434Z,8.41
2023-11-29T13:47:02.064Z,8.86
2023-11-29T13:49:31.075Z,8.75
2023-11-29T13:52:07.735Z,9.39
2023-11-29T13:54:41.018Z,9.72
2023-11-29T13:57:08.891Z,10.30
2023-11-29T13:59:37.452Z,10.31
2023-11-29T14:02:14.070Z,10.06
2023-11-29T14:04:46.817Z,9.55
2023-11-29T14:07:14.698Z,9.35
2023-11-29T14:09:42.744Z,9.39
2023-11-29T14:12:11.154Z,9.23
2023-11-29T14:14:38.989Z,9.09
2023-11-29T14:17:07.753Z,8.97
2023-11-29T14:19:35.497Z,8.91
2023-11-29T14:22:04.708Z,9.04
2023-11-29T14:24:32.281Z,9.27
2023-11-29T14:26:59.916Z,9.15
2023-11-29T14:29:27.692Z,9.00
2023-11-29T14:31:55.469Z,8.60
2023-11-29T14:34:23.117Z,8.48
2023-11-29T14:36:54.531Z,8.60
2023-11-29T14:39:25.830Z,8.40
2023-11-29T14:41:53.754Z,8.24
2023-11-29T14:44:21.386Z,8.00
2023-11-29T14:46:49.128Z,7.69
2023-11-29T14:49:23.754Z,7.37
2023-11-29T14:51:56.577Z,6.94
2023-11-29T14:54:25.553Z,6.74
2023-11-29T14:56:53.199Z,6.61
2023-11-29T14:59:20.771Z,6.32
2023-11-29T15:01:48.656Z,6.14
2023-11-29T15:04:16.362Z,6.01
2023-11-29T15:06:44.440Z,5.86
2023-11-29T15:09:12.059Z,5.70
2023-11-29T15:11:41.037Z,5.59
2023-11-29T15:14:08.694Z,5.47
2023-11-29T15:16:36.374Z,5.32
2023-11-29T15:19:04.364Z,5.21
2023-11-29T15:21:32.146Z,5.04
2023-11-29T15:24:00.394Z,4.89
2023-11-29T15:26:28.068Z,4.75
2023-11-29T15:28:57.172Z,4.67
2023-11-29T15:31:24.781Z,4.53
2023-11-29T15:33:52.614Z,4.41
2023-11-29T15:36:20.592Z,4.38
2023-11-29T15:38:50.134Z,4.18
2023-11-29T15:41:17.759Z,4.04
2023-11-29T15:43:45.407Z,4.01
2023-11-29T15:46:14.369Z,3.90
2023-11-29T15:48:42.169Z,3.84
2023-11-29T15:51:10.449Z,3.75
2023-11-29T15:53:38.121Z,3.55
2023-11-29T15:56:06.669Z,3.48
2023-11-29T15:58:34.288Z,3.33
2023-11-29T16:01:01.866Z,3.31
2023-11-29T16:03:30.789Z,3.17
2023-11-29T16:05:59.513Z,3.08
2023-11-29T16:08:27.348Z,2.98
2023-11-29T16:10:54.940Z,2.94
2023-11-29T16:13:22.555Z,3.07
2023-11-29T16:15:50.118Z,5.95
2023-11-29T16:18:17.829Z,6.30
2023-11-29T16:20:48.167Z,5.02
2023-11-29T16:23:15.855Z,4.25
2023-11-29T16:25:43.953Z,3.81
2023-11-29T16:28:11.826Z,3.51
2023-11-29T16:30:39.695Z,3.32
2023-11-29T16:33:07.971Z,3.20
2023-11-29T16:35:35.828Z,3.08
2023-11-29T16:38:05.291Z,3.06
2023-11-29T16:40:32.957Z,2.98
2023-11-29T16:43:00.695Z,2.98
2023-11-29T16:45:28.298Z,2.90
2023-11-29T16:47:55.991Z,2.64
2023-11-29T16:50:23.625Z,2.18
2023-11-29T16:52:52.322Z,2.06
2023-11-29T16:55:21.364Z,5.00
2023-11-29T16:57:48.972Z,5.53
2023-11-29T17:00:18.264Z,4.31
2023-11-29T17:02:45.954Z,3.64
2023-11-29T17:05:17.119Z,3.28
2023-11-29T17:07:44.857Z,2.84
2023-11-29T17:10:12.786Z,2.78
2023-11-29T17:12:41.693Z,2.48
2023-11-29T17:15:10.362Z,2.25
2023-11-29T17:17:39.023Z,1.98
2023-11-29T17:20:07.893Z,1.83
2023-11-29T17:22:35.463Z,1.92
2023-11-29T17:25:03.148Z,2.00
2023-11-29T17:27:31.121Z,2.15
2023-11-29T17:30:00.293Z,2.33
2023-11-29T17:32:28.071Z,2.34
2023-11-29T17:34:56.079Z,2.43
2023-11-29T17:37:23.676Z,2.43
2023-11-29T17:39:51.231Z,2.45
2023-11-29T17:42:19.292Z,2.48
2023-11-29T17:44:47.542Z,2.33
2023-11-29T17:47:18.012Z,1.93
2023-11-29T17:49:46.169Z,1.80
2023-11-29T17:52:16.272Z,4.15
2023-11-29T17:54:44.174Z,6.39
2023-11-29T17:57:11.878Z,7.54
2023-11-29T17:59:39.482Z,5.48
2023-11-29T18:02:08.159Z,4.34
2023-11-29T18:04:37.195Z,3.68
2023-11-29T18:07:05.291Z,3.35
2023-11-29T18:09:33.064Z,3.03
2023-11-29T18:12:00.713Z,2.84
2023-11-29T18:14:28.271Z,2.78
2023-11-29T18:16:55.841Z,2.72
2023-11-29T18:19:23.474Z,2.71
2023-11-29T18:21:52.457Z,2.76
2023-11-29T18:24:20.375Z,2.69
2023-11-29T18:26:49.026Z,2.59
2023-11-29T18:29:16.793Z,2.57
2023-11-29T18:31:44.373Z,2.49
2023-11-29T18:34:12.182Z,2.21
2023-11-29T18:36:39.723Z,1.95
2023-11-29T18:39:08.780Z,1.83
2023-11-29T18:41:36.488Z,3.63
2023-11-29T18:44:04.189Z,6.06
2023-11-29T18:46:32.186Z,6.83
2023-11-29T18:49:00.023Z,5.28
2023-11-29T18:51:27.731Z,4.27
2023-11-29T18:53:55.946Z,3.63
2023-11-29T18:56:24.905Z,3.27
2023-11-29T18:58:54.770Z,3.10
2023-11-29T19:01:22.393Z,2.89
2023-11-29T19:03:50.223Z,2.74
2023-11-29T19:06:17.927Z,2.43
2023-11-29T19:08:45.598Z,2.38
2023-11-29T19:11:13.952Z,2.35
2023-11-29T19:13:42.887Z,2.31
2023-11-29T19:16:15.418Z,5.31
2023-11-29T19:18:43.289Z,7.01
2023-11-29T19:21:12.122Z,6.24
2023-11-29T19:23:45.717Z,4.91
2023-11-29T19:26:14.071Z,4.01
2023-11-29T19:28:44.402Z,3.59
2023-11-29T19:31:12.024Z,3.38
2023-11-29T19:33:39.674Z,3.22
2023-11-29T19:36:08.308Z,3.11
2023-11-29T19:38:35.938Z,2.97
2023-11-29T19:41:03.521Z,2.82
2023-11-29T19:43:31.088Z,2.61
2023-11-29T19:45:59.970Z,2.62
2023-11-29T19:48:27.679Z,2.62
2023-11-29T19:50:56.278Z,2.62
2023-11-29T19:53:23.862Z,2.62
2023-11-29T19:55:51.442Z,3.27
2023-11-29T19:58:23.923Z,3.20
2023-11-29T20:00:57.918Z,3.26
2023-11-29T20:03:27.094Z,2.81
2023-11-29T20:05:54.815Z,2.65
2023-11-29T20:08:22.404Z,2.51
2023-11-29T20:10:55.421Z,2.51
2023-11-29T20:13:24.275Z,2.40
2023-11-29T20:15:52.009Z,2.41
2023-11-29T20:18:22.110Z,2.47
2023-11-29T20:21:01.258Z,2.56
2023-11-29T20:23:31.978Z,2.65
2023-11-29T20:25:59.644Z,2.67
2023-11-29T20:28:27.239Z,2.64
2023-11-29T20:30:55.232Z,2.62
2023-11-29T20:33:23.323Z,2.65
2023-11-29T20:35:52.850Z,2.72
2023-11-29T20:38:20.514Z,2.70
2023-11-29T20:40:48.569Z,2.70
2023-11-29T20:43:16.613Z,2.72
2023-11-29T20:45:44.308Z,3.67
2023-11-29T20:48:12.188Z,3.45
2023-11-29T20:50:40.748Z,4.01
2023-11-29T20:53:17.882Z,3.55
2023-11-29T20:55:49.231Z,3.04
2023-11-29T20:58:18.966Z,3.00
2023-11-29T21:00:46.747Z,2.95
2023-11-29T21:03:14.989Z,4.96
2023-11-29T21:05:43.051Z,6.59
2023-11-29T21:08:12.044Z,8.28
2023-11-29T21:10:39.606Z,8.12
2023-11-29T21:13:08.640Z,6.19
2023-11-29T21:15:37.394Z,4.88
2023-11-29T21:18:05.477Z,4.24
2023-11-29T21:20:34.666Z,3.75
2023-11-29T21:23:02.273Z,3.22
2023-11-29T21:25:31.934Z,2.97
2023-11-29T21:27:59.878Z,2.93
2023-11-29T21:30:27.572Z,2.64
2023-11-29T21:32:55.360Z,2.19
2023-11-29T21:35:23.009Z,1.99
2023-11-29T21:37:50.780Z,2.03
2023-11-29T21:40:18.523Z,2.10
2023-11-29T21:42:47.448Z,2.31
2023-11-29T21:45:15.146Z,2.29
2023-11-29T21:47:42.952Z,2.42
2023-11-29T21:50:11.121Z,2.51
2023-11-29T21:52:38.942Z,2.50
2023-11-29T21:55:07.140Z,2.60
2023-11-29T21:57:34.841Z,2.43
2023-11-29T22:00:04.922Z,2.32
2023-11-29T22:02:34.292Z,2.37
2023-11-29T22:05:02.502Z,2.47
2023-11-29T22:07:30.087Z,2.47
2023-11-29T22:09:57.654Z,2.23
2023-11-29T22:12:25.392Z,2.08
2023-11-29T22:14:53.002Z,2.00
2023-11-29T22:17:22.008Z,2.10
2023-11-29T22:19:49.670Z,1.85
2023-11-29T22:22:17.331Z,1.98
2023-11-29T22:24:44.909Z,1.79
2023-11-29T22:27:12.617Z,1.60
2023-11-29T22:29:40.383Z,1.48
2023-11-29T22:32:08.529Z,1.48
2023-11-29T22:34:37.596Z,1.56
2023-11-29T22:37:05.490Z,1.59
2023-11-29T22:39:33.119Z,1.51
2023-11-29T22:42:00.783Z,1.47
2023-11-29T22:44:28.446Z,1.65
2023-11-29T22:46:56.081Z,1.79
2023-11-29T22:49:23.667Z,1.91
2023-11-29T22:51:52.816Z,2.00
2023-11-29T22:54:20.605Z,1.96
2023-11-29T22:56:48.352Z,1.97
2023-11-29T22:59:15.894Z,1.92
2023-11-29T23:01:43.760Z,1.82
2023-11-29T23:04:11.793Z,1.76
2023-11-29T23:06:39.615Z,1.60
2023-11-29T23:09:09.448Z,1.68
2023-11-29T23:11:37.097Z,1.67
2023-11-29T23:14:04.655Z,1.59
2023-11-29T23:16:33.152Z,1.60
2023-11-29T23:19:00.816Z,1.68
2023-11-29T23:21:28.508Z,1.71
2023-11-29T23:23:56.120Z,1.69
2023-11-29T23:26:25.014Z,1.75
2023-11-29T23:28:52.669Z,1.80
2023-11-29T23:31:20.284Z,1.83
2023-11-29T23:33:47.930Z,1.59
2023-11-29T23:36:15.638Z,1.56
2023-11-29T23:38:43.322Z,1.55
2023-11-29T23:41:10.889Z,1.57
2023-11-29T23:43:39.774Z,1.66
2023-11-29T23:46:08.258Z,1.70
2023-11-29T23:48:35.869Z,1.72
2023-11-29T23:51:03.525Z,1.67
2023-11-29T23:53:31.113Z,1.42
2023-11-29T23:55:58.812Z,1.29
2023-11-29T23:58:26.408Z,1.09
